Terminal Aerodrome Forecast
Issued by NWS

Home | Current Version | Previous Version | Text Only | Print | Product List | Glossary On
Versions: 1 2 3 4 5 6 7 8 9 10 11 12 13 14 15 16 17 18 19 20 21
000
FTUS43 KDMX 261740
TAFMCW
TAF
KMCW 261740Z 2618/2718 24009KT P6SM FEW200
     FM262000 18006KT P6SM FEW050 BKN110
     FM270300 16007KT P6SM VCTS BKN040CB BKN140
     FM270400 17007KT 4SM -TSRA OVC040CB
     FM271000 12006KT 3SM BR VCTS OVC040CB
     FM271500 16011KT 6SM -SHRA OVC035=

USA.gov is the U.S. government's official web portal to all federal, state and local government web resources and services.